createdAt,value
2023-01-21T00:00:23.590Z,95.20
2023-01-21T00:02:50.322Z,94.60
2023-01-21T00:05:16.962Z,94.60
2023-01-21T00:07:43.671Z,93.80
2023-01-21T00:10:10.532Z,94.30
2023-01-21T00:12:38.498Z,94.60
2023-01-21T00:15:05.533Z,94.30
2023-01-21T00:17:35.769Z,94.60
2023-01-21T00:20:04.031Z,94.70
2023-01-21T00:22:30.715Z,94.50
2023-01-21T00:24:57.410Z,94.20
2023-01-21T00:27:24.153Z,94.30
2023-01-21T00:29:50.855Z,93.80
2023-01-21T00:32:17.653Z,93.50
2023-01-21T00:34:44.345Z,93.60
2023-01-21T00:37:11.278Z,93.90
2023-01-21T00:39:42.656Z,93.90
2023-01-21T00:42:11.177Z,94.10
2023-01-21T00:44:38.640Z,94.50
2023-01-21T00:47:06.252Z,93.90
2023-01-21T00:49:33.523Z,93.90
2023-01-21T00:52:00.275Z,93.70
2023-01-21T00:54:26.965Z,93.80
2023-01-21T00:56:53.696Z,94.20
2023-01-21T00:59:20.578Z,94.00
2023-01-21T01:01:47.291Z,93.80
2023-01-21T01:04:14.445Z,94.50
2023-01-21T01:06:41.100Z,94.50
2023-01-21T01:09:08.225Z,94.30
2023-01-21T01:11:34.900Z,94.20
2023-01-21T01:14:01.606Z,93.90
2023-01-21T01:16:28.253Z,94.00
2023-01-21T01:18:55.646Z,94.30
2023-01-21T01:21:22.832Z,94.20
2023-01-21T01:23:52.117Z,94.10
2023-01-21T01:26:20.463Z,94.60
2023-01-21T01:28:47.130Z,94.40
2023-01-21T01:31:16.936Z,94.60
2023-01-21T01:33:43.694Z,94.60
2023-01-21T01:36:25.595Z,94.20
2023-01-21T01:38:53.971Z,93.80
2023-01-21T01:41:23.013Z,94.10
2023-01-21T01:44:02.853Z,94.10
2023-01-21T01:46:33.030Z,94.30
2023-01-21T01:49:16.845Z,94.00
2023-01-21T01:51:50.237Z,93.80
2023-01-21T01:54:24.940Z,94.00
2023-01-21T01:56:55.148Z,94.20
2023-01-21T01:59:22.105Z,94.10
2023-01-21T02:01:49.291Z,94.30
2023-01-21T02:04:23.240Z,94.80
2023-01-21T02:06:53.634Z,94.20
2023-01-21T02:09:20.515Z,94.20
2023-01-21T02:11:47.365Z,94.00
2023-01-21T02:14:14.123Z,93.20
2023-01-21T02:17:02.346Z,93.10
2023-01-21T02:20:11.969Z,93.10
2023-01-21T02:23:22.097Z,93.80
2023-01-21T02:26:43.307Z,94.50
2023-01-21T02:29:31.510Z,94.00
2023-01-21T02:32:16.892Z,93.70
2023-01-21T02:34:52.528Z,93.80
2023-01-21T02:37:48.402Z,93.70
2023-01-21T02:40:28.950Z,93.80
2023-01-21T02:43:14.753Z,94.10
2023-01-21T02:45:53.280Z,94.70
2023-01-21T02:48:32.637Z,94.50
2023-01-21T02:50:59.438Z,94.30
2023-01-21T02:53:34.557Z,94.70
2023-01-21T02:56:06.014Z,94.60
2023-01-21T02:58:36.236Z,94.70
2023-01-21T03:01:27.690Z,94.80
2023-01-21T03:04:12.912Z,94.70
2023-01-21T03:07:03.316Z,94.80
2023-01-21T03:09:32.598Z,95.10
2023-01-21T03:12:25.206Z,95.10
2023-01-21T03:15:25.125Z,95.40
2023-01-21T03:18:00.974Z,95.90
2023-01-21T03:20:35.158Z,96.10
2023-01-21T03:23:14.866Z,95.90
2023-01-21T03:25:42.081Z,95.70
2023-01-21T03:28:13.722Z,95.40
2023-01-21T03:30:47.749Z,95.70
2023-01-21T03:33:18.479Z,96.00
2023-01-21T03:35:49.070Z,96.40
2023-01-21T03:38:27.101Z,97.00
2023-01-21T03:41:07.389Z,97.10
2023-01-21T03:43:34.234Z,97.00
2023-01-21T03:46:22.444Z,97.30
2023-01-21T03:48:55.571Z,97.30
2023-01-21T03:51:31.453Z,97.60
2023-01-21T03:53:59.599Z,97.60
2023-01-21T03:56:27.155Z,97.40
2023-01-21T03:58:54.091Z,97.00
2023-01-21T04:01:21.387Z,97.20
2023-01-21T04:03:48.242Z,96.70
2023-01-21T04:06:17.352Z,96.50
2023-01-21T04:08:44.514Z,96.60
2023-01-21T04:11:11.542Z,96.70
2023-01-21T04:13:38.439Z,96.90
2023-01-21T04:16:05.688Z,96.60
2023-01-21T04:18:32.686Z,96.40
2023-01-21T04:20:59.383Z,96.30
2023-01-21T04:23:26.222Z,96.20
2023-01-21T04:25:53.348Z,96.20
2023-01-21T04:28:20.020Z,96.50
2023-01-21T04:30:47.395Z,96.50
2023-01-21T04:33:14.126Z,96.50
2023-01-21T04:35:40.762Z,96.40
2023-01-21T04:38:07.497Z,96.40
2023-01-21T04:40:34.199Z,96.30
2023-01-21T04:43:00.839Z,95.90
2023-01-21T04:45:27.499Z,95.70
2023-01-21T04:47:54.129Z,96.10
2023-01-21T04:50:20.948Z,96.10
2023-01-21T04:52:47.671Z,95.80
2023-01-21T04:55:14.400Z,95.90
2023-01-21T04:57:41.098Z,96.20
2023-01-21T05:00:08.849Z,96.00
2023-01-21T05:02:35.788Z,95.70
2023-01-21T05:05:02.760Z,95.90
2023-01-21T05:07:29.448Z,96.10
2023-01-21T05:09:56.144Z,95.90
2023-01-21T05:12:22.837Z,95.70
2023-01-21T05:14:54.208Z,95.40
2023-01-21T05:17:21.299Z,95.00
2023-01-21T05:19:47.982Z,95.00
2023-01-21T05:22:14.622Z,94.70
2023-01-21T05:24:41.307Z,95.10
2023-01-21T05:27:08.280Z,95.00
2023-01-21T05:29:34.992Z,95.20
2023-01-21T05:32:01.893Z,94.60
2023-01-21T05:34:28.642Z,95.10
2023-01-21T05:36:55.325Z,94.70
2023-01-21T05:39:21.985Z,94.60
2023-01-21T05:41:49.126Z,94.60
2023-01-21T05:44:17.620Z,94.90
2023-01-21T05:46:44.520Z,94.70
2023-01-21T05:49:11.196Z,95.00
2023-01-21T05:51:37.831Z,94.60
2023-01-21T05:54:04.622Z,94.70
2023-01-21T05:56:31.257Z,94.30
2023-01-21T05:58:58.023Z,94.60
2023-01-21T06:01:25.023Z,94.10
2023-01-21T06:03:51.844Z,94.00
2023-01-21T06:06:18.777Z,94.20
2023-01-21T06:08:45.543Z,93.80
2023-01-21T06:11:12.327Z,93.90
2023-01-21T06:13:38.945Z,93.70
2023-01-21T06:16:05.956Z,93.80
2023-01-21T06:18:32.790Z,93.80
2023-01-21T06:21:00.329Z,94.20
2023-01-21T06:23:27.085Z,94.10
2023-01-21T06:25:53.696Z,93.60
2023-01-21T06:28:20.364Z,93.30
2023-01-21T06:30:47.318Z,93.70
2023-01-21T06:33:14.027Z,93.30
2023-01-21T06:35:40.672Z,93.60
2023-01-21T06:38:07.363Z,94.20
2023-01-21T06:40:34.035Z,94.10
2023-01-21T06:43:00.822Z,94.00
2023-01-21T06:45:28.250Z,93.90
2023-01-21T06:47:54.908Z,93.90
2023-01-21T06:50:21.678Z,93.70
2023-01-21T06:52:49.355Z,93.50
2023-01-21T06:55:16.838Z,93.60
2023-01-21T06:57:44.179Z,93.30
2023-01-21T07:00:12.671Z,93.10
2023-01-21T07:02:39.409Z,93.30
2023-01-21T07:05:06.642Z,93.40
2023-01-21T07:07:33.464Z,93.90
2023-01-21T07:10:00.136Z,94.00
2023-01-21T07:12:26.802Z,93.80
2023-01-21T07:14:53.544Z,93.80
2023-01-21T07:17:21.446Z,93.60
2023-01-21T07:19:48.128Z,94.10
2023-01-21T07:22:14.754Z,93.70
2023-01-21T07:24:41.402Z,93.80
2023-01-21T07:27:08.506Z,93.80
2023-01-21T07:29:35.150Z,93.80
2023-01-21T07:32:01.964Z,94.10
2023-01-21T07:34:28.624Z,94.40
2023-01-21T07:36:55.248Z,94.40
2023-01-21T07:39:22.009Z,94.40
2023-01-21T07:41:48.647Z,94.10
2023-01-21T07:44:17.712Z,93.60
2023-01-21T07:46:44.446Z,93.30
2023-01-21T07:49:16.946Z,93.60
2023-01-21T07:51:47.860Z,93.50
2023-01-21T07:54:15.203Z,93.50
2023-01-21T07:56:43.763Z,93.30
2023-01-21T07:59:11.414Z,93.50
2023-01-21T08:01:38.147Z,93.40
2023-01-21T08:04:06.951Z,93.30
2023-01-21T08:06:38.052Z,93.00
2023-01-21T08:09:05.103Z,92.80
2023-01-21T08:11:31.781Z,92.80
2023-01-21T08:13:58.510Z,92.80
2023-01-21T08:16:25.329Z,92.50
2023-01-21T08:18:52.079Z,93.20
2023-01-21T08:21:20.839Z,93.50
2023-01-21T08:23:47.663Z,93.60
2023-01-21T08:26:14.353Z,93.70
2023-01-21T08:28:41.104Z,93.80
2023-01-21T08:31:11.144Z,93.50
2023-01-21T08:33:38.393Z,93.40
2023-01-21T08:36:07.129Z,93.20
2023-01-21T08:38:34.411Z,93.00
2023-01-21T08:41:01.422Z,93.10
2023-01-21T08:43:28.169Z,92.50
2023-01-21T08:46:01.358Z,92.30
2023-01-21T08:48:30.881Z,92.20
2023-01-21T08:51:00.983Z,92.00
2023-01-21T08:53:28.272Z,92.20
2023-01-21T08:56:02.081Z,91.50
2023-01-21T08:58:30.331Z,91.50
2023-01-21T09:00:57.367Z,91.70
2023-01-21T09:03:24.584Z,91.50
2023-01-21T09:05:51.718Z,91.60
2023-01-21T09:08:19.082Z,91.20
2023-01-21T09:11:01.065Z,91.10
2023-01-21T09:13:38.826Z,91.20
2023-01-21T09:16:14.971Z,90.70
2023-01-21T09:18:42.411Z,90.80
2023-01-21T09:21:09.975Z,91.60
2023-01-21T09:23:37.602Z,91.10
2023-01-21T09:26:14.906Z,90.70
2023-01-21T09:28:43.103Z,90.10
2023-01-21T09:31:15.556Z,90.80
2023-01-21T09:33:48.108Z,90.90
2023-01-21T09:36:21.728Z,90.90
2023-01-21T09:38:49.928Z,90.90
2023-01-21T09:41:22.683Z,91.00
2023-01-21T09:43:59.022Z,91.40
2023-01-21T09:46:48.641Z,91.70
2023-01-21T09:49:21.538Z,91.20
2023-01-21T09:52:01.123Z,91.60
2023-01-21T09:54:33.649Z,91.10
2023-01-21T09:57:15.435Z,91.00
2023-01-21T10:00:14.396Z,90.00
2023-01-21T10:03:00.302Z,89.70
2023-01-21T10:05:44.971Z,89.90
2023-01-21T10:08:24.751Z,89.80
2023-01-21T10:11:06.433Z,89.20
2023-01-21T10:13:51.580Z,88.70
2023-01-21T10:16:27.397Z,88.20
2023-01-21T10:18:56.546Z,88.40
2023-01-21T10:21:38.296Z,87.50
2023-01-21T10:24:19.577Z,87.00
2023-01-21T10:26:49.607Z,86.90
2023-01-21T10:29:23.177Z,86.80
2023-01-21T10:32:22.493Z,86.00
2023-01-21T10:34:54.589Z,85.60
2023-01-21T10:37:42.982Z,85.80
2023-01-21T10:40:39.003Z,85.70
2023-01-21T10:43:23.825Z,85.90
2023-01-21T10:46:15.714Z,86.70
2023-01-21T10:49:09.842Z,87.10
2023-01-21T10:51:47.122Z,88.10
2023-01-21T10:54:42.688Z,88.60
2023-01-21T10:57:25.884Z,88.60
2023-01-21T10:59:56.966Z,89.30
2023-01-21T11:02:31.289Z,89.10
2023-01-21T11:05:04.363Z,89.50
2023-01-21T11:07:39.797Z,89.60
2023-01-21T11:10:07.765Z,89.70
2023-01-21T11:12:35.128Z,89.70
2023-01-21T11:15:11.785Z,89.80
2023-01-21T11:17:41.564Z,89.50
2023-01-21T11:20:32.040Z,90.10
2023-01-21T11:22:58.831Z,90.00
2023-01-21T11:25:41.375Z,90.10
2023-01-21T11:28:26.288Z,90.50
2023-01-21T11:31:15.722Z,90.90
2023-01-21T11:33:43.483Z,91.10
2023-01-21T11:36:18.225Z,91.50
2023-01-21T11:38:47.338Z,91.90
2023-01-21T11:41:22.394Z,91.30
2023-01-21T11:43:55.407Z,91.40
2023-01-21T11:46:22.330Z,91.80
2023-01-21T11:48:49.517Z,91.90
2023-01-21T11:51:17.804Z,92.40
2023-01-21T11:53:46.528Z,92.60
2023-01-21T11:56:15.617Z,92.80
2023-01-21T11:58:42.921Z,92.80
2023-01-21T12:01:19.619Z,92.90
2023-01-21T12:03:53.672Z,92.90
2023-01-21T12:06:25.493Z,93.20
2023-01-21T12:08:56.130Z,93.30
2023-01-21T12:11:27.654Z,93.00
2023-01-21T12:14:15.591Z,92.80
2023-01-21T12:16:59.145Z,93.40
2023-01-21T12:19:34.671Z,93.60
2023-01-21T12:22:26.760Z,94.00
2023-01-21T12:25:38.503Z,94.10
2023-01-21T12:28:26.654Z,93.40
2023-01-21T12:31:06.637Z,93.10
2023-01-21T12:33:41.352Z,94.00
2023-01-21T12:36:45.976Z,94.80
2023-01-21T12:39:28.397Z,93.60
2023-01-21T12:42:10.143Z,92.90
2023-01-21T12:44:46.207Z,93.20
2023-01-21T12:47:32.648Z,93.10
2023-01-21T12:50:17.021Z,93.20
2023-01-21T12:53:05.577Z,92.50
2023-01-21T12:55:55.746Z,92.80
2023-01-21T12:58:43.614Z,92.40
2023-01-21T13:01:16.895Z,92.90
2023-01-21T13:03:58.185Z,93.30
2023-01-21T13:06:53.549Z,92.50
2023-01-21T13:09:53.398Z,93.50
2023-01-21T13:12:26.372Z,94.00
2023-01-21T13:15:20.746Z,94.20
2023-01-21T13:17:53.526Z,94.50
2023-01-21T13:20:22.079Z,94.80
2023-01-21T13:23:02.417Z,94.90
2023-01-21T13:25:54.748Z,94.40
2023-01-21T13:28:32.488Z,94.00
2023-01-21T13:31:13.188Z,93.70
2023-01-21T13:33:51.587Z,93.90
2023-01-21T13:36:43.773Z,94.40
2023-01-21T13:39:23.412Z,94.50
2023-01-21T13:42:19.187Z,93.80
2023-01-21T13:44:58.857Z,93.90
2023-01-21T13:47:38.959Z,93.50
2023-01-21T13:50:27.008Z,93.70
2023-01-21T13:53:08.376Z,93.40
2023-01-21T13:55:56.582Z,93.10
2023-01-21T13:58:34.974Z,93.30
2023-01-21T14:01:18.770Z,93.60
2023-01-21T14:04:24.963Z,93.30
2023-01-21T14:07:01.110Z,93.70
2023-01-21T14:09:37.176Z,94.30
2023-01-21T14:12:15.539Z,94.10
2023-01-21T14:15:33.832Z,94.20
2023-01-21T14:18:10.272Z,93.60
2023-01-21T14:21:06.459Z,93.20
2023-01-21T14:23:35.923Z,93.30
2023-01-21T14:26:30.652Z,93.30
2023-01-21T14:29:09.924Z,93.50
2023-01-21T14:31:45.236Z,93.40
2023-01-21T14:34:31.120Z,92.90
2023-01-21T14:37:17.232Z,93.90
2023-01-21T14:40:10.944Z,93.60
2023-01-21T14:42:44.384Z,94.10
2023-01-21T14:45:13.058Z,94.60
2023-01-21T14:47:39.684Z,94.00
2023-01-21T14:50:08.953Z,93.80
2023-01-21T14:52:44.396Z,93.60
2023-01-21T14:55:31.945Z,93.10
2023-01-21T14:58:01.564Z,93.20
2023-01-21T15:00:34.198Z,92.60
2023-01-21T15:03:28.175Z,92.60
2023-01-21T15:06:02.305Z,91.90
2023-01-21T15:08:46.198Z,91.80
2023-01-21T15:11:30.622Z,91.90
2023-01-21T15:14:24.093Z,92.50
2023-01-21T15:16:51.139Z,92.00
2023-01-21T15:19:27.065Z,92.10
2023-01-21T15:21:59.873Z,92.40
2023-01-21T15:24:29.674Z,92.40
2023-01-21T15:27:14.828Z,92.60
2023-01-21T15:29:43.302Z,92.70
2023-01-21T15:32:34.428Z,92.60
2023-01-21T15:35:04.208Z,91.90
2023-01-21T15:37:36.409Z,91.90
2023-01-21T15:40:28.864Z,92.00
2023-01-21T15:43:23.137Z,91.90
2023-01-21T15:46:14.399Z,91.70
2023-01-21T15:49:10.219Z,91.10
2023-01-21T15:51:42.899Z,91.70
2023-01-21T15:54:47.288Z,91.80
2023-01-21T15:57:17.169Z,92.20
2023-01-21T15:59:55.471Z,93.00
2023-01-21T16:02:31.859Z,93.30
2023-01-21T16:05:12.813Z,93.80
2023-01-21T16:08:11.846Z,93.60
2023-01-21T16:11:04.993Z,93.50
2023-01-21T16:13:56.484Z,93.50
2023-01-21T16:16:53.762Z,93.60
2023-01-21T16:19:25.720Z,93.20
2023-01-21T16:21:57.456Z,92.70
2023-01-21T16:24:28.800Z,93.30
2023-01-21T16:26:55.710Z,93.30
2023-01-21T16:29:22.493Z,92.50
2023-01-21T16:31:50.427Z,93.00
2023-01-21T16:34:41.037Z,93.00
2023-01-21T16:37:13.055Z,92.00
2023-01-21T16:39:42.467Z,92.50
2023-01-21T16:42:45.691Z,92.20
2023-01-21T16:45:19.255Z,92.30
2023-01-21T16:47:53.583Z,92.50
2023-01-21T16:50:24.646Z,92.30
2023-01-21T16:52:53.647Z,91.70
2023-01-21T16:55:27.195Z,91.80
2023-01-21T16:57:59.911Z,92.10
2023-01-21T17:00:29.696Z,91.70
2023-01-21T17:02:57.870Z,91.60
2023-01-21T17:05:31.136Z,91.80
2023-01-21T17:08:04.118Z,91.60
2023-01-21T17:10:42.059Z,91.80
2023-01-21T17:13:16.435Z,91.70
2023-01-21T17:16:01.576Z,92.10
2023-01-21T17:18:36.426Z,92.10
2023-01-21T17:21:16.334Z,92.60
2023-01-21T17:23:52.033Z,92.70
2023-01-21T17:26:36.031Z,92.40
2023-01-21T17:32:01.181Z,93.00
2023-01-21T17:34:36.637Z,92.60
2023-01-21T17:37:43.864Z,92.90
2023-01-21T17:40:45.758Z,92.30
2023-01-21T17:43:23.672Z,92.10
2023-01-21T17:45:52.868Z,92.00
2023-01-21T17:48:39.182Z,92.60
2023-01-21T17:51:25.432Z,92.30
2023-01-21T17:53:58.912Z,92.30
2023-01-21T17:56:39.578Z,91.90
2023-01-21T17:59:41.791Z,91.60
2023-01-21T18:02:12.834Z,91.60
2023-01-21T18:04:40.329Z,91.60
2023-01-21T18:07:25.477Z,91.60
2023-01-21T18:09:53.534Z,91.40
2023-01-21T18:12:21.011Z,91.50
2023-01-21T18:14:47.761Z,91.70
2023-01-21T18:17:19.944Z,91.80
2023-01-21T18:19:46.841Z,91.90
2023-01-21T18:22:24.523Z,92.10
2023-01-21T18:24:51.316Z,91.90
2023-01-21T18:27:20.460Z,92.10
2023-01-21T18:29:47.933Z,91.80
2023-01-21T18:32:15.115Z,91.20
2023-01-21T18:34:42.171Z,91.40
2023-01-21T18:37:14.287Z,91.10
2023-01-21T18:39:40.976Z,91.90
2023-01-21T18:42:13.715Z,91.80
2023-01-21T18:44:40.536Z,91.90
2023-01-21T18:47:19.112Z,91.70
2023-01-21T18:49:49.198Z,92.00
2023-01-21T18:52:18.016Z,91.50
2023-01-21T18:54:45.148Z,91.60
2023-01-21T18:57:15.507Z,92.10
2023-01-21T18:59:42.612Z,91.90
2023-01-21T19:02:16.316Z,91.20
2023-01-21T19:04:43.756Z,91.20
2023-01-21T19:07:21.495Z,91.40
2023-01-21T19:09:50.647Z,91.70
2023-01-21T19:12:21.456Z,91.40
2023-01-21T19:14:48.741Z,91.30
2023-01-21T19:17:29.405Z,91.60
2023-01-21T19:19:57.004Z,91.10
2023-01-21T19:22:24.293Z,90.90
2023-01-21T19:24:51.373Z,90.90
2023-01-21T19:27:30.271Z,91.00
2023-01-21T19:29:56.980Z,91.20
2023-01-21T19:32:23.795Z,91.50
2023-01-21T19:34:50.635Z,91.50
2023-01-21T19:37:21.260Z,91.80
2023-01-21T19:39:47.916Z,91.80
2023-01-21T19:42:15.939Z,91.50
2023-01-21T19:44:43.056Z,91.30
2023-01-21T19:47:24.783Z,91.10
2023-01-21T19:49:51.468Z,91.50
2023-01-21T19:52:18.228Z,91.10
2023-01-21T19:54:45.023Z,91.50
2023-01-21T19:57:14.739Z,92.00
2023-01-21T19:59:43.246Z,92.00
2023-01-21T20:02:11.917Z,91.90
2023-01-21T20:04:38.611Z,92.10
2023-01-21T20:07:05.513Z,92.20
2023-01-21T20:09:32.518Z,92.10
2023-01-21T20:12:00.248Z,92.50
2023-01-21T20:14:28.848Z,92.40
2023-01-21T20:16:56.441Z,91.90
2023-01-21T20:19:23.150Z,92.10
2023-01-21T20:22:01.375Z,91.90
2023-01-21T20:24:30.234Z,91.80
2023-01-21T20:26:58.089Z,91.50
2023-01-21T20:29:26.851Z,91.70
2023-01-21T20:31:54.310Z,91.40
2023-01-21T20:34:21.172Z,91.00
2023-01-21T20:36:49.495Z,90.90
2023-01-21T20:39:16.173Z,91.90
2023-01-21T20:41:43.519Z,92.20
2023-01-21T20:44:10.517Z,92.40
2023-01-21T20:46:38.267Z,92.60
2023-01-21T20:49:05.344Z,92.80
2023-01-21T20:51:32.020Z,93.20
2023-01-21T20:53:58.649Z,93.00
2023-01-21T20:56:28.637Z,93.30
2023-01-21T20:58:55.624Z,93.20
2023-01-21T21:01:24.936Z,93.70
2023-01-21T21:03:52.424Z,93.50
2023-01-21T21:06:21.501Z,93.30
2023-01-21T21:08:49.491Z,93.80
2023-01-21T21:11:18.070Z,93.50
2023-01-21T21:13:48.174Z,93.40
2023-01-21T21:16:20.473Z,94.00
2023-01-21T21:18:48.166Z,94.50
2023-01-21T21:21:16.902Z,93.90
2023-01-21T21:23:46.543Z,94.30
2023-01-21T21:26:25.695Z,94.90
2023-01-21T21:28:57.455Z,94.90
2023-01-21T21:31:31.770Z,94.60
2023-01-21T21:33:58.679Z,94.30
2023-01-21T21:36:25.326Z,94.10
2023-01-21T21:38:52.483Z,94.20
2023-01-21T21:41:40.335Z,94.50
2023-01-21T21:44:08.410Z,94.40
2023-01-21T21:46:54.853Z,94.90
2023-01-21T21:49:21.829Z,94.40
2023-01-21T21:51:49.023Z,94.10
2023-01-21T21:54:16.400Z,94.10
2023-01-21T21:56:43.638Z,94.40
2023-01-21T21:59:12.245Z,94.40
2023-01-21T22:01:40.505Z,94.40
2023-01-21T22:04:07.543Z,94.90
2023-01-21T22:06:34.287Z,95.70
2023-01-21T22:09:01.151Z,96.20
2023-01-21T22:11:29.030Z,96.10
2023-01-21T22:13:57.323Z,96.50
2023-01-21T22:16:27.370Z,96.60
2023-01-21T22:18:55.105Z,97.00
2023-01-21T22:21:28.894Z,96.20
2023-01-21T22:23:55.701Z,96.40
2023-01-21T22:26:24.635Z,96.50
2023-01-21T22:28:51.744Z,96.90
2023-01-21T22:31:24.475Z,97.00
2023-01-21T22:33:51.805Z,97.00
2023-01-21T22:36:20.558Z,97.30
2023-01-21T22:38:47.402Z,97.50
2023-01-21T22:41:15.928Z,97.30
2023-01-21T22:43:44.803Z,97.10
2023-01-21T22:46:13.788Z,97.20
2023-01-21T22:48:43.447Z,97.30
2023-01-21T22:51:15.409Z,97.50
2023-01-21T22:53:45.010Z,97.40
2023-01-21T22:56:23.384Z,97.60
2023-01-21T22:58:50.347Z,97.50
2023-01-21T23:01:31.183Z,97.20
2023-01-21T23:03:59.448Z,97.00
2023-01-21T23:06:26.568Z,96.70
2023-01-21T23:08:55.472Z,96.90
2023-01-21T23:11:22.477Z,96.90
2023-01-21T23:13:49.773Z,97.20
2023-01-21T23:16:19.197Z,97.30
2023-01-21T23:18:45.943Z,97.30
2023-01-21T23:21:19.638Z,97.40
2023-01-21T23:23:46.942Z,97.60
2023-01-21T23:26:14.107Z,97.50
2023-01-21T23:28:41.094Z,97.70
2023-01-21T23:31:10.526Z,97.70
2023-01-21T23:33:37.244Z,97.60
2023-01-21T23:36:04.071Z,97.70
2023-01-21T23:38:30.731Z,97.90
2023-01-21T23:40:57.503Z,97.30
2023-01-21T23:43:26.336Z,97.40
2023-01-21T23:45:53.767Z,97.70
2023-01-21T23:48:20.822Z,97.40
2023-01-21T23:50:47.813Z,97.30
2023-01-21T23:53:14.953Z,97.70
2023-01-21T23:55:41.618Z,97.90
2023-01-21T23:58:08.269Z,97.70
